sensor_id;sensor_type;location;lat;lon;timestamp;P1;durP1;ratioP1;P2;durP2;ratioP2
42030;SDS011;27709;52.036;5.906;2024-01-30T00:00:59;11.07;;;8.05;;
42030;SDS011;27709;52.036;5.906;2024-01-30T00:03:25;13.48;;;8.80;;
42030;SDS011;27709;52.036;5.906;2024-01-30T00:05:51;12.75;;;8.38;;
42030;SDS011;27709;52.036;5.906;2024-01-30T00:08:17;15.40;;;8.93;;
42030;SDS011;27709;52.036;5.906;2024-01-30T00:10:42;13.25;;;8.50;;
42030;SDS011;27709;52.036;5.906;2024-01-30T00:13:08;14.98;;;8.02;;
42030;SDS011;27709;52.036;5.906;2024-01-30T00:15:34;12.70;;;7.40;;
42030;SDS011;27709;52.036;5.906;2024-01-30T00:17:59;10.90;;;6.78;;
42030;SDS011;27709;52.036;5.906;2024-01-30T00:20:26;12.65;;;8.07;;
42030;SDS011;27709;52.036;5.906;2024-01-30T00:22:51;11.52;;;8.40;;
42030;SDS011;27709;52.036;5.906;2024-01-30T00:25:17;11.10;;;7.45;;
42030;SDS011;27709;52.036;5.906;2024-01-30T00:27:42;12.02;;;7.97;;
42030;SDS011;27709;52.036;5.906;2024-01-30T00:30:08;11.63;;;7.85;;
42030;SDS011;27709;52.036;5.906;2024-01-30T00:32:34;11.70;;;7.38;;
42030;SDS011;27709;52.036;5.906;2024-01-30T00:35:00;12.52;;;8.85;;
42030;SDS011;27709;52.036;5.906;2024-01-30T00:37:25;12.38;;;7.93;;
42030;SDS011;27709;52.036;5.906;2024-01-30T00:39:51;12.57;;;8.88;;
42030;SDS011;27709;52.036;5.906;2024-01-30T00:42:17;13.93;;;9.00;;
42030;SDS011;27709;52.036;5.906;2024-01-30T00:44:42;12.45;;;8.57;;
42030;SDS011;27709;52.036;5.906;2024-01-30T00:47:08;13.45;;;8.35;;
42030;SDS011;27709;52.036;5.906;2024-01-30T00:49:33;12.15;;;8.80;;
42030;SDS011;27709;52.036;5.906;2024-01-30T00:51:59;13.20;;;8.38;;
42030;SDS011;27709;52.036;5.906;2024-01-30T00:54:25;11.95;;;8.20;;
42030;SDS011;27709;52.036;5.906;2024-01-30T00:56:51;12.98;;;8.68;;
42030;SDS011;27709;52.036;5.906;2024-01-30T00:59:16;13.55;;;9.20;;
42030;SDS011;27709;52.036;5.906;2024-01-30T01:01:42;14.30;;;8.85;;
42030;SDS011;27709;52.036;5.906;2024-01-30T01:04:07;11.15;;;8.50;;
42030;SDS011;27709;52.036;5.906;2024-01-30T01:06:33;14.50;;;9.63;;
42030;SDS011;27709;52.036;5.906;2024-01-30T01:08:58;12.38;;;8.00;;
42030;SDS011;27709;52.036;5.906;2024-01-30T01:11:24;11.27;;;7.72;;
42030;SDS011;27709;52.036;5.906;2024-01-30T01:13:50;13.73;;;8.93;;
42030;SDS011;27709;52.036;5.906;2024-01-30T01:16:15;12.07;;;8.50;;
42030;SDS011;27709;52.036;5.906;2024-01-30T01:18:41;15.15;;;8.93;;
42030;SDS011;27709;52.036;5.906;2024-01-30T01:21:06;12.52;;;8.77;;
42030;SDS011;27709;52.036;5.906;2024-01-30T01:23:32;12.52;;;8.98;;
42030;SDS011;27709;52.036;5.906;2024-01-30T01:25:57;14.23;;;8.85;;
42030;SDS011;27709;52.036;5.906;2024-01-30T01:28:24;12.73;;;8.18;;
42030;SDS011;27709;52.036;5.906;2024-01-30T01:30:50;14.20;;;9.20;;
42030;SDS011;27709;52.036;5.906;2024-01-30T01:33:16;13.82;;;8.75;;
42030;SDS011;27709;52.036;5.906;2024-01-30T01:35:42;12.43;;;8.20;;
42030;SDS011;27709;52.036;5.906;2024-01-30T01:38:08;12.45;;;8.15;;
42030;SDS011;27709;52.036;5.906;2024-01-30T01:40:33;13.27;;;9.07;;
42030;SDS011;27709;52.036;5.906;2024-01-30T01:43:02;14.02;;;9.05;;
42030;SDS011;27709;52.036;5.906;2024-01-30T01:45:29;12.85;;;8.73;;
42030;SDS011;27709;52.036;5.906;2024-01-30T01:47:54;11.75;;;8.15;;
42030;SDS011;27709;52.036;5.906;2024-01-30T01:50:20;14.07;;;8.18;;
42030;SDS011;27709;52.036;5.906;2024-01-30T01:52:50;12.88;;;8.32;;
42030;SDS011;27709;52.036;5.906;2024-01-30T01:55:16;13.23;;;9.10;;
42030;SDS011;27709;52.036;5.906;2024-01-30T01:57:47;13.65;;;9.32;;
42030;SDS011;27709;52.036;5.906;2024-01-30T02:00:12;14.25;;;9.30;;
42030;SDS011;27709;52.036;5.906;2024-01-30T02:02:39;14.98;;;9.75;;
42030;SDS011;27709;52.036;5.906;2024-01-30T02:05:05;16.42;;;9.68;;
42030;SDS011;27709;52.036;5.906;2024-01-30T02:07:31;14.80;;;8.65;;
42030;SDS011;27709;52.036;5.906;2024-01-30T02:09:56;14.20;;;8.73;;
42030;SDS011;27709;52.036;5.906;2024-01-30T02:12:22;14.68;;;8.38;;
42030;SDS011;27709;52.036;5.906;2024-01-30T02:14:48;14.30;;;9.23;;
42030;SDS011;27709;52.036;5.906;2024-01-30T02:17:14;13.60;;;8.77;;
42030;SDS011;27709;52.036;5.906;2024-01-30T02:19:40;14.23;;;9.27;;
42030;SDS011;27709;52.036;5.906;2024-01-30T02:22:06;14.30;;;9.65;;
42030;SDS011;27709;52.036;5.906;2024-01-30T02:24:32;14.57;;;9.80;;
42030;SDS011;27709;52.036;5.906;2024-01-30T02:26:58;14.68;;;9.48;;
42030;SDS011;27709;52.036;5.906;2024-01-30T02:29:23;12.77;;;8.40;;
42030;SDS011;27709;52.036;5.906;2024-01-30T02:31:49;15.63;;;10.13;;
42030;SDS011;27709;52.036;5.906;2024-01-30T02:34:15;14.77;;;10.50;;
42030;SDS011;27709;52.036;5.906;2024-01-30T02:36:44;15.50;;;10.38;;
42030;SDS011;27709;52.036;5.906;2024-01-30T02:39:10;17.08;;;10.20;;
42030;SDS011;27709;52.036;5.906;2024-01-30T02:41:36;17.83;;;11.95;;
42030;SDS011;27709;52.036;5.906;2024-01-30T02:44:01;18.67;;;11.35;;
42030;SDS011;27709;52.036;5.906;2024-01-30T02:46:28;15.57;;;10.80;;
42030;SDS011;27709;52.036;5.906;2024-01-30T02:48:54;15.07;;;9.75;;
42030;SDS011;27709;52.036;5.906;2024-01-30T02:51:19;16.40;;;10.38;;
42030;SDS011;27709;52.036;5.906;2024-01-30T02:53:45;15.65;;;10.27;;
42030;SDS011;27709;52.036;5.906;2024-01-30T02:56:10;17.95;;;10.80;;
42030;SDS011;27709;52.036;5.906;2024-01-30T02:58:37;16.00;;;11.00;;
42030;SDS011;27709;52.036;5.906;2024-01-30T03:01:02;16.67;;;10.05;;
42030;SDS011;27709;52.036;5.906;2024-01-30T03:03:28;16.70;;;10.88;;
42030;SDS011;27709;52.036;5.906;2024-01-30T03:05:54;17.20;;;11.85;;
42030;SDS011;27709;52.036;5.906;2024-01-30T03:08:19;19.08;;;11.52;;
42030;SDS011;27709;52.036;5.906;2024-01-30T03:10:46;15.63;;;10.18;;
42030;SDS011;27709;52.036;5.906;2024-01-30T03:13:11;16.08;;;11.18;;
42030;SDS011;27709;52.036;5.906;2024-01-30T03:15:37;17.35;;;10.00;;
42030;SDS011;27709;52.036;5.906;2024-01-30T03:18:03;17.52;;;11.93;;
42030;SDS011;27709;52.036;5.906;2024-01-30T03:20:29;14.88;;;10.30;;
42030;SDS011;27709;52.036;5.906;2024-01-30T03:22:54;14.27;;;9.48;;
42030;SDS011;27709;52.036;5.906;2024-01-30T03:25:20;18.38;;;10.35;;
42030;SDS011;27709;52.036;5.906;2024-01-30T03:27:46;17.02;;;10.80;;
42030;SDS011;27709;52.036;5.906;2024-01-30T03:30:12;15.15;;;10.30;;
42030;SDS011;27709;52.036;5.906;2024-01-30T03:32:37;14.00;;;9.55;;
42030;SDS011;27709;52.036;5.906;2024-01-30T03:35:03;15.60;;;10.57;;
42030;SDS011;27709;52.036;5.906;2024-01-30T03:37:29;16.67;;;10.70;;
42030;SDS011;27709;52.036;5.906;2024-01-30T03:39:54;16.80;;;10.38;;
42030;SDS011;27709;52.036;5.906;2024-01-30T03:42:20;20.17;;;11.10;;
42030;SDS011;27709;52.036;5.906;2024-01-30T03:44:47;16.88;;;11.43;;
42030;SDS011;27709;52.036;5.906;2024-01-30T03:47:13;16.95;;;10.32;;
42030;SDS011;27709;52.036;5.906;2024-01-30T03:49:38;16.63;;;10.07;;
42030;SDS011;27709;52.036;5.906;2024-01-30T03:52:04;18.52;;;10.35;;
42030;SDS011;27709;52.036;5.906;2024-01-30T03:54:30;15.80;;;10.98;;
42030;SDS011;27709;52.036;5.906;2024-01-30T03:56:56;14.48;;;9.43;;
42030;SDS011;27709;52.036;5.906;2024-01-30T03:59:21;14.50;;;9.45;;
42030;SDS011;27709;52.036;5.906;2024-01-30T04:01:49;18.00;;;10.02;;
42030;SDS011;27709;52.036;5.906;2024-01-30T04:04:16;15.65;;;10.45;;
42030;SDS011;27709;52.036;5.906;2024-01-30T04:06:43;14.65;;;9.30;;
42030;SDS011;27709;52.036;5.906;2024-01-30T04:09:09;15.18;;;10.50;;
42030;SDS011;27709;52.036;5.906;2024-01-30T04:11:36;15.95;;;10.18;;
42030;SDS011;27709;52.036;5.906;2024-01-30T04:14:01;13.73;;;9.35;;
42030;SDS011;27709;52.036;5.906;2024-01-30T04:16:27;14.38;;;9.45;;
42030;SDS011;27709;52.036;5.906;2024-01-30T04:18:53;14.77;;;9.88;;
42030;SDS011;27709;52.036;5.906;2024-01-30T04:21:20;17.98;;;10.60;;
42030;SDS011;27709;52.036;5.906;2024-01-30T04:23:46;15.48;;;9.93;;
42030;SDS011;27709;52.036;5.906;2024-01-30T04:26:12;12.50;;;8.70;;
42030;SDS011;27709;52.036;5.906;2024-01-30T04:28:37;14.07;;;9.63;;
42030;SDS011;27709;52.036;5.906;2024-01-30T04:31:03;12.85;;;9.13;;
42030;SDS011;27709;52.036;5.906;2024-01-30T04:33:28;12.60;;;8.25;;
42030;SDS011;27709;52.036;5.906;2024-01-30T04:35:54;12.70;;;9.15;;
42030;SDS011;27709;52.036;5.906;2024-01-30T04:38:19;12.77;;;8.07;;
42030;SDS011;27709;52.036;5.906;2024-01-30T04:40:45;13.20;;;8.23;;
42030;SDS011;27709;52.036;5.906;2024-01-30T04:43:11;14.70;;;8.80;;
42030;SDS011;27709;52.036;5.906;2024-01-30T04:45:36;11.25;;;8.05;;
42030;SDS011;27709;52.036;5.906;2024-01-30T04:48:02;10.90;;;7.97;;
42030;SDS011;27709;52.036;5.906;2024-01-30T04:50:28;14.13;;;8.75;;
42030;SDS011;27709;52.036;5.906;2024-01-30T04:52:53;12.13;;;8.25;;
42030;SDS011;27709;52.036;5.906;2024-01-30T04:55:19;12.02;;;7.88;;
42030;SDS011;27709;52.036;5.906;2024-01-30T04:57:44;9.27;;;7.00;;
42030;SDS011;27709;52.036;5.906;2024-01-30T05:00:10;11.68;;;7.20;;
42030;SDS011;27709;52.036;5.906;2024-01-30T05:02:36;13.48;;;9.18;;
42030;SDS011;27709;52.036;5.906;2024-01-30T05:05:02;14.77;;;9.32;;
42030;SDS011;27709;52.036;5.906;2024-01-30T05:07:28;13.05;;;8.85;;
42030;SDS011;27709;52.036;5.906;2024-01-30T05:09:53;12.70;;;8.25;;
42030;SDS011;27709;52.036;5.906;2024-01-30T05:12:19;11.77;;;7.82;;
42030;SDS011;27709;52.036;5.906;2024-01-30T05:14:45;13.18;;;8.75;;
42030;SDS011;27709;52.036;5.906;2024-01-30T05:17:11;12.75;;;8.48;;
42030;SDS011;27709;52.036;5.906;2024-01-30T05:19:37;12.88;;;8.50;;
42030;SDS011;27709;52.036;5.906;2024-01-30T05:22:03;12.88;;;8.23;;
42030;SDS011;27709;52.036;5.906;2024-01-30T05:24:29;13.32;;;8.23;;
42030;SDS011;27709;52.036;5.906;2024-01-30T05:26:54;13.88;;;8.13;;
42030;SDS011;27709;52.036;5.906;2024-01-30T05:29:20;11.95;;;7.30;;
42030;SDS011;27709;52.036;5.906;2024-01-30T05:31:45;12.95;;;7.45;;
42030;SDS011;27709;52.036;5.906;2024-01-30T05:34:11;13.07;;;7.75;;
42030;SDS011;27709;52.036;5.906;2024-01-30T05:36:37;11.45;;;7.45;;
42030;SDS011;27709;52.036;5.906;2024-01-30T05:39:02;12.68;;;7.80;;
42030;SDS011;27709;52.036;5.906;2024-01-30T05:41:32;10.65;;;7.20;;
42030;SDS011;27709;52.036;5.906;2024-01-30T05:43:58;10.68;;;7.05;;
42030;SDS011;27709;52.036;5.906;2024-01-30T05:46:23;12.68;;;7.57;;
42030;SDS011;27709;52.036;5.906;2024-01-30T05:48:49;12.07;;;8.00;;
42030;SDS011;27709;52.036;5.906;2024-01-30T05:51:14;11.63;;;8.18;;
42030;SDS011;27709;52.036;5.906;2024-01-30T05:53:41;12.13;;;8.15;;
42030;SDS011;27709;52.036;5.906;2024-01-30T05:56:07;13.13;;;7.53;;
42030;SDS011;27709;52.036;5.906;2024-01-30T05:58:32;11.38;;;7.97;;
42030;SDS011;27709;52.036;5.906;2024-01-30T06:00:58;10.90;;;7.18;;
42030;SDS011;27709;52.036;5.906;2024-01-30T06:03:23;10.80;;;7.60;;
42030;SDS011;27709;52.036;5.906;2024-01-30T06:05:49;12.90;;;7.90;;
42030;SDS011;27709;52.036;5.906;2024-01-30T06:08:15;12.15;;;7.30;;
42030;SDS011;27709;52.036;5.906;2024-01-30T06:10:40;10.45;;;6.95;;
42030;SDS011;27709;52.036;5.906;2024-01-30T06:13:06;10.02;;;6.80;;
42030;SDS011;27709;52.036;5.906;2024-01-30T06:15:31;10.98;;;7.07;;
42030;SDS011;27709;52.036;5.906;2024-01-30T06:17:57;10.02;;;7.03;;
42030;SDS011;27709;52.036;5.906;2024-01-30T06:20:23;13.15;;;7.97;;
42030;SDS011;27709;52.036;5.906;2024-01-30T06:22:49;10.50;;;7.00;;
42030;SDS011;27709;52.036;5.906;2024-01-30T06:25:15;11.13;;;7.78;;
42030;SDS011;27709;52.036;5.906;2024-01-30T06:27:41;14.05;;;7.65;;
42030;SDS011;27709;52.036;5.906;2024-01-30T06:30:07;14.95;;;8.20;;
42030;SDS011;27709;52.036;5.906;2024-01-30T06:32:33;11.65;;;7.10;;
42030;SDS011;27709;52.036;5.906;2024-01-30T06:35:00;12.93;;;7.15;;
42030;SDS011;27709;52.036;5.906;2024-01-30T06:37:27;10.95;;;6.55;;
42030;SDS011;27709;52.036;5.906;2024-01-30T06:39:52;12.18;;;7.35;;
42030;SDS011;27709;52.036;5.906;2024-01-30T06:42:18;12.63;;;7.40;;
42030;SDS011;27709;52.036;5.906;2024-01-30T06:44:44;9.95;;;7.18;;
42030;SDS011;27709;52.036;5.906;2024-01-30T06:47:09;10.63;;;6.78;;
42030;SDS011;27709;52.036;5.906;2024-01-30T06:49:35;11.23;;;6.93;;
42030;SDS011;27709;52.036;5.906;2024-01-30T06:52:05;9.20;;;6.45;;
42030;SDS011;27709;52.036;5.906;2024-01-30T06:54:31;10.68;;;6.88;;
42030;SDS011;27709;52.036;5.906;2024-01-30T06:56:57;10.73;;;7.15;;
42030;SDS011;27709;52.036;5.906;2024-01-30T06:59:23;12.32;;;7.80;;
42030;SDS011;27709;52.036;5.906;2024-01-30T07:01:49;9.50;;;6.63;;
42030;SDS011;27709;52.036;5.906;2024-01-30T07:04:15;10.65;;;7.70;;
42030;SDS011;27709;52.036;5.906;2024-01-30T07:06:41;11.82;;;7.00;;
42030;SDS011;27709;52.036;5.906;2024-01-30T07:09:07;10.30;;;7.28;;
42030;SDS011;27709;52.036;5.906;2024-01-30T07:11:33;10.18;;;6.43;;
42030;SDS011;27709;52.036;5.906;2024-01-30T07:13:59;10.02;;;6.72;;
42030;SDS011;27709;52.036;5.906;2024-01-30T07:16:24;9.68;;;7.10;;
42030;SDS011;27709;52.036;5.906;2024-01-30T07:18:50;11.80;;;7.03;;
42030;SDS011;27709;52.036;5.906;2024-01-30T07:21:16;9.88;;;6.38;;
42030;SDS011;27709;52.036;5.906;2024-01-30T07:23:42;10.75;;;6.95;;
42030;SDS011;27709;52.036;5.906;2024-01-30T07:26:08;9.73;;;6.38;;
42030;SDS011;27709;52.036;5.906;2024-01-30T07:28:35;11.25;;;6.53;;
42030;SDS011;27709;52.036;5.906;2024-01-30T07:31:01;11.60;;;7.05;;
42030;SDS011;27709;52.036;5.906;2024-01-30T07:33:27;10.13;;;7.00;;
42030;SDS011;27709;52.036;5.906;2024-01-30T07:35:53;12.63;;;6.85;;
42030;SDS011;27709;52.036;5.906;2024-01-30T07:38:19;10.63;;;6.72;;
42030;SDS011;27709;52.036;5.906;2024-01-30T07:40:45;9.23;;;6.10;;
42030;SDS011;27709;52.036;5.906;2024-01-30T07:43:11;9.15;;;6.05;;
42030;SDS011;27709;52.036;5.906;2024-01-30T07:45:36;13.02;;;6.65;;
42030;SDS011;27709;52.036;5.906;2024-01-30T07:48:03;11.93;;;7.18;;
42030;SDS011;27709;52.036;5.906;2024-01-30T07:50:31;10.20;;;6.50;;
42030;SDS011;27709;52.036;5.906;2024-01-30T07:52:59;10.07;;;6.30;;
42030;SDS011;27709;52.036;5.906;2024-01-30T07:55:25;9.90;;;6.40;;
42030;SDS011;27709;52.036;5.906;2024-01-30T07:57:53;11.77;;;6.70;;
42030;SDS011;27709;52.036;5.906;2024-01-30T08:00:20;11.13;;;6.80;;
42030;SDS011;27709;52.036;5.906;2024-01-30T08:02:52;10.68;;;7.03;;
42030;SDS011;27709;52.036;5.906;2024-01-30T08:05:20;11.70;;;7.45;;
42030;SDS011;27709;52.036;5.906;2024-01-30T08:07:50;9.57;;;6.38;;
42030;SDS011;27709;52.036;5.906;2024-01-30T08:10:15;11.35;;;7.07;;
42030;SDS011;27709;52.036;5.906;2024-01-30T08:12:43;11.95;;;6.47;;
42030;SDS011;27709;52.036;5.906;2024-01-30T08:15:11;9.88;;;6.40;;
42030;SDS011;27709;52.036;5.906;2024-01-30T08:17:43;11.82;;;6.72;;
42030;SDS011;27709;52.036;5.906;2024-01-30T08:20:09;11.73;;;6.32;;
42030;SDS011;27709;52.036;5.906;2024-01-30T08:22:38;12.93;;;7.57;;
42030;SDS011;27709;52.036;5.906;2024-01-30T08:25:04;10.18;;;7.22;;
42030;SDS011;27709;52.036;5.906;2024-01-30T08:27:32;10.18;;;6.35;;
42030;SDS011;27709;52.036;5.906;2024-01-30T08:29:57;11.30;;;7.15;;
42030;SDS011;27709;52.036;5.906;2024-01-30T08:32:24;10.82;;;7.43;;
42030;SDS011;27709;52.036;5.906;2024-01-30T08:34:51;10.43;;;6.45;;
42030;SDS011;27709;52.036;5.906;2024-01-30T08:37:16;10.18;;;6.72;;
42030;SDS011;27709;52.036;5.906;2024-01-30T08:39:43;10.15;;;6.38;;
42030;SDS011;27709;52.036;5.906;2024-01-30T08:42:09;9.70;;;6.93;;
42030;SDS011;27709;52.036;5.906;2024-01-30T08:44:35;9.93;;;6.38;;
42030;SDS011;27709;52.036;5.906;2024-01-30T08:47:00;11.40;;;6.18;;
42030;SDS011;27709;52.036;5.906;2024-01-30T08:49:26;9.88;;;6.57;;
42030;SDS011;27709;52.036;5.906;2024-01-30T08:51:52;11.63;;;6.90;;
42030;SDS011;27709;52.036;5.906;2024-01-30T08:54:18;11.95;;;6.03;;
42030;SDS011;27709;52.036;5.906;2024-01-30T08:56:44;9.70;;;6.25;;
42030;SDS011;27709;52.036;5.906;2024-01-30T08:59:09;10.45;;;6.90;;
42030;SDS011;27709;52.036;5.906;2024-01-30T09:01:36;11.13;;;6.85;;
42030;SDS011;27709;52.036;5.906;2024-01-30T09:04:01;9.70;;;6.22;;
42030;SDS011;27709;52.036;5.906;2024-01-30T09:06:27;9.43;;;6.55;;
42030;SDS011;27709;52.036;5.906;2024-01-30T09:08:54;9.48;;;7.03;;
42030;SDS011;27709;52.036;5.906;2024-01-30T09:11:19;11.85;;;6.97;;
42030;SDS011;27709;52.036;5.906;2024-01-30T09:13:45;9.82;;;6.63;;
42030;SDS011;27709;52.036;5.906;2024-01-30T09:16:11;9.05;;;6.32;;
42030;SDS011;27709;52.036;5.906;2024-01-30T09:18:36;8.82;;;6.00;;
42030;SDS011;27709;52.036;5.906;2024-01-30T09:21:02;10.65;;;6.25;;
42030;SDS011;27709;52.036;5.906;2024-01-30T09:23:27;12.98;;;6.20;;
42030;SDS011;27709;52.036;5.906;2024-01-30T09:25:55;9.77;;;6.55;;
42030;SDS011;27709;52.036;5.906;2024-01-30T09:28:20;10.32;;;6.57;;
42030;SDS011;27709;52.036;5.906;2024-01-30T09:30:46;9.25;;;6.20;;
42030;SDS011;27709;52.036;5.906;2024-01-30T09:33:11;10.52;;;6.32;;
42030;SDS011;27709;52.036;5.906;2024-01-30T09:35:37;9.15;;;5.90;;
42030;SDS011;27709;52.036;5.906;2024-01-30T09:38:03;12.10;;;7.57;;
42030;SDS011;27709;52.036;5.906;2024-01-30T09:40:28;11.82;;;7.82;;
42030;SDS011;27709;52.036;5.906;2024-01-30T09:42:54;11.70;;;7.47;;
42030;SDS011;27709;52.036;5.906;2024-01-30T09:45:23;10.45;;;7.07;;
42030;SDS011;27709;52.036;5.906;2024-01-30T09:47:50;10.95;;;7.63;;
42030;SDS011;27709;52.036;5.906;2024-01-30T09:50:16;10.30;;;6.53;;
42030;SDS011;27709;52.036;5.906;2024-01-30T09:52:45;9.73;;;7.00;;
42030;SDS011;27709;52.036;5.906;2024-01-30T09:55:12;13.00;;;7.38;;
42030;SDS011;27709;52.036;5.906;2024-01-30T09:57:38;11.85;;;7.20;;
42030;SDS011;27709;52.036;5.906;2024-01-30T10:00:05;11.10;;;7.32;;
42030;SDS011;27709;52.036;5.906;2024-01-30T10:02:35;12.77;;;7.60;;
42030;SDS011;27709;52.036;5.906;2024-01-30T10:05:01;12.75;;;7.40;;
42030;SDS011;27709;52.036;5.906;2024-01-30T10:07:27;13.05;;;7.90;;
42030;SDS011;27709;52.036;5.906;2024-01-30T10:09:53;12.55;;;7.32;;
42030;SDS011;27709;52.036;5.906;2024-01-30T10:12:20;13.75;;;7.78;;
42030;SDS011;27709;52.036;5.906;2024-01-30T10:14:46;11.95;;;7.22;;
42030;SDS011;27709;52.036;5.906;2024-01-30T10:17:12;13.10;;;6.97;;
42030;SDS011;27709;52.036;5.906;2024-01-30T10:19:41;11.40;;;6.63;;
42030;SDS011;27709;52.036;5.906;2024-01-30T10:22:07;12.30;;;7.43;;
42030;SDS011;27709;52.036;5.906;2024-01-30T10:24:34;9.07;;;6.65;;
42030;SDS011;27709;52.036;5.906;2024-01-30T10:27:00;12.18;;;6.85;;
42030;SDS011;27709;52.036;5.906;2024-01-30T10:29:26;12.27;;;8.43;;
42030;SDS011;27709;52.036;5.906;2024-01-30T10:34:24;11.00;;;7.03;;
42030;SDS011;27709;52.036;5.906;2024-01-30T10:37:09;15.13;;;7.53;;
42030;SDS011;27709;52.036;5.906;2024-01-30T10:39:42;10.45;;;7.15;;
42030;SDS011;27709;52.036;5.906;2024-01-30T10:42:15;12.23;;;7.38;;
42030;SDS011;27709;52.036;5.906;2024-01-30T10:47:39;13.82;;;7.88;;
42030;SDS011;27709;52.036;5.906;2024-01-30T10:50:07;12.50;;;7.50;;
42030;SDS011;27709;52.036;5.906;2024-01-30T10:52:33;11.15;;;7.22;;
42030;SDS011;27709;52.036;5.906;2024-01-30T10:55:00;15.65;;;7.95;;
42030;SDS011;27709;52.036;5.906;2024-01-30T10:57:26;10.43;;;7.00;;
42030;SDS011;27709;52.036;5.906;2024-01-30T10:59:56;14.05;;;7.50;;
42030;SDS011;27709;52.036;5.906;2024-01-30T11:02:23;12.05;;;7.35;;
42030;SDS011;27709;52.036;5.906;2024-01-30T11:04:50;13.25;;;7.80;;
42030;SDS011;27709;52.036;5.906;2024-01-30T11:07:25;13.82;;;7.63;;
42030;SDS011;27709;52.036;5.906;2024-01-30T11:12:23;13.52;;;7.75;;
42030;SDS011;27709;52.036;5.906;2024-01-30T11:15:01;11.70;;;6.82;;
42030;SDS011;27709;52.036;5.906;2024-01-30T11:17:28;11.55;;;7.28;;
42030;SDS011;27709;52.036;5.906;2024-01-30T11:20:04;13.30;;;7.93;;
42030;SDS011;27709;52.036;5.906;2024-01-30T11:22:30;15.73;;;7.90;;
42030;SDS011;27709;52.036;5.906;2024-01-30T11:24:56;15.02;;;8.23;;
42030;SDS011;27709;52.036;5.906;2024-01-30T11:27:22;14.75;;;8.68;;
42030;SDS011;27709;52.036;5.906;2024-01-30T11:29:50;12.27;;;7.40;;
42030;SDS011;27709;52.036;5.906;2024-01-30T11:32:21;14.15;;;8.38;;
42030;SDS011;27709;52.036;5.906;2024-01-30T11:34:49;15.70;;;9.13;;
42030;SDS011;27709;52.036;5.906;2024-01-30T11:37:15;13.77;;;7.88;;
42030;SDS011;27709;52.036;5.906;2024-01-30T11:39:44;16.80;;;8.73;;
42030;SDS011;27709;52.036;5.906;2024-01-30T11:42:11;12.18;;;8.13;;
42030;SDS011;27709;52.036;5.906;2024-01-30T11:44:38;11.80;;;8.25;;
42030;SDS011;27709;52.036;5.906;2024-01-30T11:47:04;25.08;;;16.77;;
42030;SDS011;27709;52.036;5.906;2024-01-30T11:49:29;14.32;;;8.02;;
42030;SDS011;27709;52.036;5.906;2024-01-30T11:51:55;14.90;;;8.35;;
42030;SDS011;27709;52.036;5.906;2024-01-30T11:54:22;14.55;;;7.72;;
42030;SDS011;27709;52.036;5.906;2024-01-30T11:56:48;15.55;;;8.13;;
42030;SDS011;27709;52.036;5.906;2024-01-30T11:59:13;10.82;;;7.20;;
42030;SDS011;27709;52.036;5.906;2024-01-30T12:01:39;10.50;;;7.50;;
42030;SDS011;27709;52.036;5.906;2024-01-30T12:04:05;11.95;;;7.80;;
42030;SDS011;27709;52.036;5.906;2024-01-30T12:06:34;11.07;;;6.70;;
42030;SDS011;27709;52.036;5.906;2024-01-30T12:09:02;12.18;;;6.63;;
42030;SDS011;27709;52.036;5.906;2024-01-30T12:11:44;10.88;;;6.70;;
42030;SDS011;27709;52.036;5.906;2024-01-30T12:14:13;9.48;;;5.88;;
42030;SDS011;27709;52.036;5.906;2024-01-30T12:16:41;11.35;;;6.53;;
42030;SDS011;27709;52.036;5.906;2024-01-30T12:19:06;10.35;;;6.53;;
42030;SDS011;27709;52.036;5.906;2024-01-30T12:21:33;10.48;;;5.88;;
42030;SDS011;27709;52.036;5.906;2024-01-30T12:23:59;9.63;;;5.75;;
42030;SDS011;27709;52.036;5.906;2024-01-30T12:26:25;10.43;;;5.88;;
42030;SDS011;27709;52.036;5.906;2024-01-30T12:28:54;8.88;;;5.47;;
42030;SDS011;27709;52.036;5.906;2024-01-30T12:31:27;9.73;;;4.65;;
42030;SDS011;27709;52.036;5.906;2024-01-30T12:33:53;8.85;;;4.03;;
42030;SDS011;27709;52.036;5.906;2024-01-30T12:36:20;11.48;;;3.78;;
42030;SDS011;27709;52.036;5.906;2024-01-30T12:38:46;9.20;;;3.50;;
42030;SDS011;27709;52.036;5.906;2024-01-30T12:41:12;8.07;;;3.67;;
42030;SDS011;27709;52.036;5.906;2024-01-30T12:43:38;9.95;;;3.35;;
42030;SDS011;27709;52.036;5.906;2024-01-30T12:46:03;8.65;;;3.20;;
42030;SDS011;27709;52.036;5.906;2024-01-30T12:48:33;5.40;;;2.58;;
42030;SDS011;27709;52.036;5.906;2024-01-30T12:51:00;5.43;;;2.67;;
42030;SDS011;27709;52.036;5.906;2024-01-30T12:53:26;6.75;;;2.45;;
42030;SDS011;27709;52.036;5.906;2024-01-30T12:55:51;5.15;;;2.10;;
42030;SDS011;27709;52.036;5.906;2024-01-30T12:58:19;4.55;;;1.55;;
42030;SDS011;27709;52.036;5.906;2024-01-30T13:00:44;5.80;;;1.30;;
42030;SDS011;27709;52.036;5.906;2024-01-30T13:03:10;4.07;;;1.30;;
42030;SDS011;27709;52.036;5.906;2024-01-30T13:05:39;3.65;;;1.00;;
42030;SDS011;27709;52.036;5.906;2024-01-30T13:08:05;6.93;;;1.02;;
42030;SDS011;27709;52.036;5.906;2024-01-30T13:10:34;4.50;;;0.95;;
42030;SDS011;27709;52.036;5.906;2024-01-30T13:13:00;2.55;;;0.80;;
42030;SDS011;27709;52.036;5.906;2024-01-30T13:15:25;2.30;;;0.60;;
42030;SDS011;27709;52.036;5.906;2024-01-30T13:17:51;4.70;;;0.80;;
42030;SDS011;27709;52.036;5.906;2024-01-30T13:20:22;2.58;;;0.77;;
42030;SDS011;27709;52.036;5.906;2024-01-30T13:22:48;4.20;;;0.73;;
42030;SDS011;27709;52.036;5.906;2024-01-30T13:25:15;2.47;;;0.60;;
42030;SDS011;27709;52.036;5.906;2024-01-30T13:27:44;2.40;;;0.68;;
42030;SDS011;27709;52.036;5.906;2024-01-30T13:30:11;2.80;;;0.65;;
42030;SDS011;27709;52.036;5.906;2024-01-30T13:32:37;2.15;;;0.50;;
42030;SDS011;27709;52.036;5.906;2024-01-30T13:35:02;2.35;;;0.60;;
42030;SDS011;27709;52.036;5.906;2024-01-30T13:37:28;2.25;;;0.68;;
42030;SDS011;27709;52.036;5.906;2024-01-30T13:39:54;3.70;;;0.95;;
42030;SDS011;27709;52.036;5.906;2024-01-30T13:42:21;4.05;;;1.00;;
42030;SDS011;27709;52.036;5.906;2024-01-30T13:44:47;5.05;;;1.30;;
42030;SDS011;27709;52.036;5.906;2024-01-30T13:47:12;6.43;;;2.22;;
42030;SDS011;27709;52.036;5.906;2024-01-30T13:49:38;7.38;;;2.03;;
42030;SDS011;27709;52.036;5.906;2024-01-30T13:52:03;6.63;;;2.58;;
42030;SDS011;27709;52.036;5.906;2024-01-30T13:54:29;7.97;;;3.47;;
42030;SDS011;27709;52.036;5.906;2024-01-30T13:56:55;5.65;;;2.58;;
42030;SDS011;27709;52.036;5.906;2024-01-30T13:59:21;7.03;;;2.95;;
42030;SDS011;27709;52.036;5.906;2024-01-30T14:01:49;6.85;;;2.88;;
42030;SDS011;27709;52.036;5.906;2024-01-30T14:04:15;6.70;;;3.28;;
42030;SDS011;27709;52.036;5.906;2024-01-30T14:06:40;11.25;;;3.75;;
42030;SDS011;27709;52.036;5.906;2024-01-30T14:09:06;8.45;;;3.42;;
42030;SDS011;27709;52.036;5.906;2024-01-30T14:11:32;6.18;;;3.28;;
42030;SDS011;27709;52.036;5.906;2024-01-30T14:13:58;9.07;;;3.78;;
42030;SDS011;27709;52.036;5.906;2024-01-30T14:16:25;5.53;;;2.80;;
42030;SDS011;27709;52.036;5.906;2024-01-30T14:18:51;6.50;;;3.40;;
42030;SDS011;27709;52.036;5.906;2024-01-30T14:21:16;9.52;;;3.03;;
42030;SDS011;27709;52.036;5.906;2024-01-30T14:23:45;6.78;;;3.38;;
42030;SDS011;27709;52.036;5.906;2024-01-30T14:26:12;6.28;;;2.30;;
42030;SDS011;27709;52.036;5.906;2024-01-30T14:28:38;4.97;;;2.25;;
42030;SDS011;27709;52.036;5.906;2024-01-30T14:31:04;6.38;;;2.28;;
42030;SDS011;27709;52.036;5.906;2024-01-30T14:33:30;6.45;;;2.40;;
42030;SDS011;27709;52.036;5.906;2024-01-30T14:35:55;8.02;;;2.08;;
42030;SDS011;27709;52.036;5.906;2024-01-30T14:38:21;6.55;;;2.08;;